Time;durP1;ratioP1;P1;durP2;ratioP2;P2;SDS_P1;SDS_P2;PMS_P1;PMS_P2;Temp;Humidity;BMP_temperature;BMP_pressure;BME280_temperature;BME280_humidity;BME280_pressure;Samples;Min_cycle;Max_cycle;Signal;HPM_P1;HPM_P2
2022/07/09 00:00:18;;;;;;;7.40;0.90;;;;;;;16.43;64.61;101077.92;105705;1273;23351;-62
2022/07/09 00:03:06;;;;;;;10.90;1.00;;;;;;;16.42;64.77;101074.84;105733;1273;24374;-62
2022/07/09 00:05:35;;;;;;;7.60;1.10;;;;;;;16.41;64.72;101077.75;105829;1273;22560;-62
2022/07/09 00:08:05;;;;;;;9.30;1.10;;;;;;;16.40;64.76;101075.23;105813;1273;22627;-63
2022/07/09 00:10:34;;;;;;;8.80;1.00;;;;;;;16.39;65.03;101080.66;105732;1275;22632;-64
2022/07/09 00:13:02;;;;;;;9.00;1.40;;;;;;;16.39;65.00;101079.38;105754;1274;25267;-63
2022/07/09 00:15:31;;;;;;;7.10;0.90;;;;;;;16.39;65.28;101086.50;105840;1273;22547;-63
2022/07/09 00:18:00;;;;;;;5.20;0.80;;;;;;;16.38;64.99;101083.31;106033;1273;22583;-62
2022/07/09 00:20:29;;;;;;;6.30;1.00;;;;;;;16.38;65.20;101080.34;105678;1273;25517;-63
2022/07/09 00:22:58;;;;;;;6.70;0.90;;;;;;;16.38;65.28;101078.48;105855;1273;22562;-62
2022/07/09 00:25:28;;;;;;;7.30;1.00;;;;;;;16.35;65.27;101080.56;105786;1273;25511;-62
2022/07/09 00:27:56;;;;;;;8.50;1.00;;;;;;;16.33;65.23;101087.30;105702;1273;25329;-62
2022/07/09 00:30:25;;;;;;;5.80;0.90;;;;;;;16.31;65.31;101081.66;105730;1273;22538;-62
2022/07/09 00:32:54;;;;;;;6.50;0.90;;;;;;;16.29;65.44;101086.55;105856;1273;22571;-63
2022/07/09 00:35:23;;;;;;;7.90;1.30;;;;;;;16.24;65.59;101082.02;105783;1273;22560;-63
2022/07/09 00:37:52;;;;;;;5.90;0.90;;;;;;;16.22;65.59;101081.68;105774;1273;25462;-61
2022/07/09 00:40:21;;;;;;;10.90;1.00;;;;;;;16.18;65.66;101077.70;105831;1273;25282;-62
2022/07/09 00:42:51;;;;;;;9.10;0.90;;;;;;;16.15;65.71;101074.79;105816;1273;25274;-62
2022/07/09 00:45:20;;;;;;;12.40;1.20;;;;;;;16.12;65.87;101071.50;105813;1273;26761;-62
2022/07/09 00:47:48;;;;;;;8.40;1.00;;;;;;;16.10;65.83;101073.98;105684;1273;25314;-62
2022/07/09 00:50:17;;;;;;;9.20;1.20;;;;;;;16.06;65.99;101070.47;105821;1273;22699;-62
2022/07/09 00:52:47;;;;;;;9.10;1.00;;;;;;;16.05;66.04;101069.37;105623;1273;26447;-63
2022/07/09 00:55:15;;;;;;;;;;;;;;;16.03;66.19;101068.95;106013;1273;22519;-62
2022/07/09 00:57:45;;;;;;;5.90;1.30;;;;;;;16.01;66.15;101068.05;105734;1274;23624;-62
2022/07/09 01:00:15;;;;;;;7.50;1.00;;;;;;;16.00;66.27;101067.23;105615;1273;22554;-61
2022/07/09 01:02:44;;;;;;;8.70;1.00;;;;;;;15.96;66.36;101063.70;105803;1274;24544;-62
2022/07/09 01:05:13;;;;;;;7.70;1.20;;;;;;;15.95;66.36;101059.95;105819;1273;22700;-63
2022/07/09 01:07:43;;;;;;;8.80;1.40;;;;;;;15.94;66.49;101058.25;105769;1274;22911;-64
2022/07/09 01:10:12;;;;;;;5.40;1.20;;;;;;;15.91;66.67;101051.58;105717;1274;22557;-62
2022/07/09 01:12:41;;;;;;;6.60;1.20;;;;;;;15.91;66.60;101047.15;105722;1276;22525;-62
2022/07/09 01:15:11;;;;;;;10.10;1.00;;;;;;;15.90;66.84;101046.95;105954;1273;25363;-62
2022/07/09 01:17:40;;;;;;;9.60;1.30;;;;;;;15.89;66.82;101044.95;105885;1273;24265;-62
2022/07/09 01:20:10;;;;;;;8.90;1.20;;;;;;;15.88;66.98;101041.96;105822;1273;24345;-62
2022/07/09 01:22:41;;;;;;;7.40;0.80;;;;;;;15.85;67.11;101040.34;105843;1273;22566;-62
2022/07/09 01:25:11;;;;;;;5.70;1.10;;;;;;;15.83;67.21;101043.34;105728;1273;24337;-62
2022/07/09 01:27:43;;;;;;;8.50;1.10;;;;;;;15.79;67.26;101038.23;105784;1273;22659;-62
2022/07/09 01:30:23;;;;;;;8.00;1.00;;;;;;;15.77;67.33;101039.27;105706;1273;25388;-63
2022/07/09 01:32:52;;;;;;;4.60;0.80;;;;;;;15.74;67.57;101036.23;105763;1273;22544;-62
2022/07/09 01:35:21;;;;;;;14.40;2.70;;;;;;;15.71;67.29;101032.21;105785;1273;22716;-63
2022/07/09 01:37:50;;;;;;;8.30;1.00;;;;;;;15.69;67.61;101029.94;105674;1273;22853;-61
2022/07/09 01:40:19;;;;;;;7.00;0.80;;;;;;;15.67;67.61;101030.58;105857;1273;22556;-62
2022/07/09 01:42:49;;;;;;;5.20;0.70;;;;;;;15.64;67.72;101028.59;105770;1271;22572;-62
2022/07/09 01:45:18;;;;;;;4.50;0.80;;;;;;;15.60;67.86;101025.34;105714;1274;22597;-62
2022/07/09 01:47:47;;;;;;;6.20;0.80;;;;;;;15.56;67.90;101023.81;105760;1273;22659;-62
2022/07/09 01:50:15;;;;;;;8.60;1.00;;;;;;;15.54;67.87;101023.98;105820;1273;24266;-63
2022/07/09 01:52:44;;;;;;;5.90;0.90;;;;;;;15.50;67.98;101023.28;105738;1275;25333;-62
2022/07/09 01:55:13;;;;;;;11.20;0.90;;;;;;;15.46;68.15;101022.20;105803;1274;25652;-62
2022/07/09 01:57:42;;;;;;;8.30;0.80;;;;;;;15.43;68.09;101023.80;105682;1273;22564;-62
2022/07/09 02:00:12;;;;;;;6.90;0.90;;;;;;;15.41;68.16;101021.10;105830;1273;25372;-62
2022/07/09 02:02:41;;;;;;;4.90;0.90;;;;;;;15.39;68.31;101014.21;105896;1273;23185;-62
2022/07/09 02:05:11;;;;;;;6.40;0.90;;;;;;;15.38;68.37;101012.11;105755;1273;25307;-62
2022/07/09 02:07:40;;;;;;;6.80;0.70;;;;;;;15.37;68.52;101010.27;105938;1273;22836;-62
2022/07/09 02:10:10;;;;;;;8.00;1.00;;;;;;;15.36;68.62;101010.36;105636;1273;24386;-62
2022/07/09 02:12:39;;;;;;;6.80;0.90;;;;;;;15.37;68.87;101006.06;105724;1273;22550;-62
2022/07/09 02:15:10;;;;;;;5.50;0.90;;;;;;;15.38;68.96;101000.70;105753;1273;22538;-63
2022/07/09 02:17:39;;;;;;;6.00;0.80;;;;;;;15.38;68.96;101001.06;105728;1273;22659;-62
2022/07/09 02:20:11;;;;;;;5.20;0.80;;;;;;;15.39;69.08;100998.92;105825;1273;24365;-62
2022/07/09 02:22:40;;;;;;;8.60;0.80;;;;;;;15.39;69.19;100994.92;105886;1273;22567;-62
2022/07/09 02:25:10;;;;;;;8.50;1.10;;;;;;;15.38;69.32;100993.44;105759;1273;22578;-61
2022/07/09 02:27:39;;;;;;;;;;;;;;;15.37;69.49;100995.83;105832;1273;22546;-62
2022/07/09 02:30:10;;;;;;;3.70;0.80;;;;;;;15.35;69.60;100996.67;105723;1274;22564;-62
2022/07/09 02:32:38;;;;;;;;;;;;;;;15.35;69.87;100992.89;105781;1273;25246;-61
2022/07/09 02:35:08;;;;;;;8.40;0.90;;;;;;;15.35;69.73;100993.40;105779;1273;22551;-62
2022/07/09 02:37:37;;;;;;;7.80;1.00;;;;;;;15.34;69.76;100991.80;105749;1273;22693;-61
2022/07/09 02:40:09;;;;;;;5.90;1.00;;;;;;;15.35;70.10;100990.29;105855;1273;24434;-61
2022/07/09 02:42:38;;;;;;;8.50;1.20;;;;;;;15.36;70.00;100994.03;105779;1273;22592;-62
2022/07/09 02:45:10;;;;;;;10.40;1.10;;;;;;;15.37;70.28;100988.30;105676;1273;22566;-61
2022/07/09 02:47:39;;;;;;;4.20;0.70;;;;;;;15.38;70.25;100988.01;105641;1275;22540;-61
2022/07/09 02:50:09;;;;;;;6.00;0.80;;;;;;;15.38;70.19;100991.13;105789;1273;24240;-63
2022/07/09 02:52:38;;;;;;;6.90;1.10;;;;;;;15.38;70.52;100986.59;105789;1274;25420;-62
2022/07/09 02:55:08;;;;;;;9.70;1.00;;;;;;;15.38;70.31;100985.31;105716;1276;24235;-61
2022/07/09 02:57:36;;;;;;;;;;;;;;;15.40;70.41;100983.38;105752;1276;24273;-62
2022/07/09 03:00:07;;;;;;;11.30;1.60;;;;;;;15.40;70.46;100983.19;105673;1274;22635;-62
2022/07/09 03:02:36;;;;;;;5.50;1.00;;;;;;;15.41;70.60;100983.35;105904;1273;22547;-61
2022/07/09 03:05:07;;;;;;;8.80;1.20;;;;;;;15.42;70.73;100980.35;105845;1273;24243;-62
2022/07/09 03:07:37;;;;;;;6.80;1.10;;;;;;;15.42;70.64;100982.76;105656;1273;25251;-62
2022/07/09 03:10:07;;;;;;;10.70;1.20;;;;;;;15.44;70.77;100981.34;105356;1273;576066;-62
2022/07/09 03:12:35;;;;;;;;;;;;;;;15.45;70.75;100980.15;105837;1273;22636;-63
2022/07/09 03:15:05;;;;;;;8.70;0.80;;;;;;;15.46;70.86;100976.71;105795;1273;23067;-61
2022/07/09 03:17:33;;;;;;;13.80;1.10;;;;;;;15.46;70.93;100977.04;105793;1273;25385;-62
2022/07/09 03:20:02;;;;;;;7.60;1.10;;;;;;;15.46;71.10;100971.71;105749;1273;22682;-62
2022/07/09 03:22:31;;;;;;;7.40;1.10;;;;;;;15.48;70.94;100970.35;105814;1273;22639;-62
2022/07/09 03:25:00;;;;;;;7.40;1.40;;;;;;;15.49;70.96;100969.39;105796;1273;22699;-62
2022/07/09 03:27:29;;;;;;;7.70;1.20;;;;;;;15.49;71.12;100968.22;105912;1273;22560;-63
2022/07/09 03:29:59;;;;;;;6.70;1.70;;;;;;;15.51;71.04;100971.91;106042;1273;24235;-62
2022/07/09 03:32:28;;;;;;;9.40;1.70;;;;;;;15.50;70.98;100963.20;105810;1274;25655;-60
2022/07/09 03:34:57;;;;;;;9.20;1.40;;;;;;;15.51;71.11;100964.91;105695;1273;22563;-63
2022/07/09 03:37:29;;;;;;;6.70;1.50;;;;;;;15.51;71.21;100965.28;105785;1273;22561;-61
2022/07/09 03:39:57;;;;;;;10.80;1.70;;;;;;;15.52;71.02;100961.39;105862;1273;22648;-62
2022/07/09 03:42:26;;;;;;;10.20;2.10;;;;;;;15.52;71.21;100964.40;105951;1273;22550;-63
2022/07/09 03:44:55;;;;;;;7.30;1.20;;;;;;;15.53;71.19;100963.86;105835;1273;24257;-62
2022/07/09 03:47:24;;;;;;;11.90;2.30;;;;;;;15.54;71.34;100965.35;105871;1273;24244;-62
2022/07/09 03:49:54;;;;;;;6.30;1.40;;;;;;;15.56;71.21;100958.81;105859;1273;22599;-61
2022/07/09 03:52:22;;;;;;;10.40;1.90;;;;;;;15.58;71.43;100961.49;105792;1273;24434;-62
2022/07/09 03:54:51;;;;;;;7.30;1.50;;;;;;;15.59;71.40;100962.07;105898;1273;23760;-62
2022/07/09 03:57:20;;;;;;;11.10;2.20;;;;;;;15.61;71.56;100957.44;105844;1273;27586;-62
2022/07/09 03:59:49;;;;;;;10.70;2.10;;;;;;;15.64;71.46;100958.69;105803;1273;24240;-62
2022/07/09 04:02:18;;;;;;;8.20;1.60;;;;;;;15.66;71.53;100959.13;105876;1273;22565;-63
2022/07/09 04:04:47;;;;;;;8.70;1.80;;;;;;;15.68;71.51;100958.02;105781;1273;24263;-62
2022/07/09 04:07:15;;;;;;;11.10;2.20;;;;;;;15.71;71.51;100958.50;105857;1273;24260;-62
2022/07/09 04:09:44;;;;;;;11.20;2.50;;;;;;;15.75;71.39;100961.30;105985;1273;24214;-62
2022/07/09 04:12:13;;;;;;;8.60;2.20;;;;;;;15.78;71.38;100960.58;105802;1273;22665;-63
2022/07/09 04:14:42;;;;;;;10.60;2.50;;;;;;;15.81;71.47;100958.65;105795;1273;23397;-62
2022/07/09 04:17:10;;;;;;;10.00;3.10;;;;;;;15.84;71.40;100954.70;105719;1273;22575;-63
2022/07/09 04:19:41;;;;;;;8.60;2.20;;;;;;;15.86;71.24;100957.98;105755;1273;22627;-62
2022/07/09 04:22:08;;;;;;;;;;;;;;;15.87;71.43;100953.17;105693;1273;22694;-62
2022/07/09 04:24:37;;;;;;;10.10;2.50;;;;;;;15.86;71.31;100951.48;105640;1274;22958;-62
2022/07/09 04:27:07;;;;;;;18.50;2.10;;;;;;;15.84;71.32;100948.70;105765;1273;26344;-63
2022/07/09 04:29:36;;;;;;;10.00;1.90;;;;;;;15.82;71.20;100950.13;105852;1273;24017;-63
2022/07/09 04:32:06;;;;;;;8.40;1.80;;;;;;;15.81;71.43;100949.94;105718;1273;24313;-62
2022/07/09 04:34:34;;;;;;;;;;;;;;;15.81;71.31;100953.00;105815;1273;22528;-62
2022/07/09 04:37:04;;;;;;;11.20;1.90;;;;;;;15.79;71.41;100952.23;106008;1273;25857;-62
2022/07/09 04:39:33;;;;;;;10.60;1.80;;;;;;;15.78;71.53;100947.16;105742;1273;25379;-61
2022/07/09 04:42:02;;;;;;;12.10;2.10;;;;;;;15.79;71.46;100948.09;105656;1273;23973;-61
2022/07/09 04:44:31;;;;;;;8.20;1.80;;;;;;;15.84;71.62;100948.75;105884;1273;24234;-61
2022/07/09 04:47:00;;;;;;;18.10;2.50;;;;;;;15.90;71.70;100951.01;105715;1273;24505;-61
2022/07/09 04:49:29;;;;;;;7.60;2.20;;;;;;;15.94;71.56;100956.46;105912;1273;23103;-61
2022/07/09 04:51:58;;;;;;;9.60;2.70;;;;;;;15.98;71.52;100954.76;105893;1273;22551;-62
2022/07/09 04:54:27;;;;;;;13.30;2.70;;;;;;;16.01;71.28;100955.50;105992;1273;24441;-62
2022/07/09 04:56:56;;;;;;;14.60;2.20;;;;;;;16.02;71.36;100953.45;105657;1273;22694;-62
2022/07/09 04:59:25;;;;;;;11.20;1.80;;;;;;;16.05;71.43;100949.48;105870;1273;24393;-62
2022/07/09 05:01:54;;;;;;;12.80;2.70;;;;;;;16.09;71.34;100949.42;105949;1272;25379;-62
2022/07/09 05:04:23;;;;;;;8.70;1.50;;;;;;;16.14;71.26;100949.81;105801;1273;22540;-62
2022/07/09 05:06:52;;;;;;;5.20;1.20;;;;;;;16.19;71.17;100948.57;105712;1273;25382;-61
2022/07/09 05:09:21;;;;;;;6.50;1.50;;;;;;;16.23;71.14;100949.90;105885;1273;25385;-62
2022/07/09 05:11:50;;;;;;;8.90;1.10;;;;;;;16.25;71.09;100953.69;105724;1273;22548;-61
2022/07/09 05:14:19;;;;;;;9.10;1.50;;;;;;;16.24;71.08;100952.05;105880;1273;24232;-62
2022/07/09 05:16:48;;;;;;;7.80;1.40;;;;;;;16.23;71.01;100952.91;106024;1273;25442;-62
2022/07/09 05:19:17;;;;;;;7.00;1.10;;;;;;;16.21;70.99;100953.72;105868;1273;22582;-63
2022/07/09 05:21:45;;;;;;;7.20;1.00;;;;;;;16.19;71.10;100952.98;105886;1273;22563;-62
2022/07/09 05:24:14;;;;;;;6.50;1.20;;;;;;;16.15;71.01;100957.96;105900;1273;22704;-62
2022/07/09 05:26:44;;;;;;;11.80;1.30;;;;;;;16.12;71.27;100954.30;105789;1273;25407;-63
2022/07/09 05:29:12;;;;;;;9.70;1.00;;;;;;;16.13;71.26;100952.02;105744;1273;22551;-62
2022/07/09 05:31:41;;;;;;;9.70;1.50;;;;;;;16.16;71.49;100951.11;105892;1273;24866;-62
2022/07/09 05:34:10;;;;;;;7.00;1.10;;;;;;;16.22;71.58;100956.34;105937;1273;22601;-62
2022/07/09 05:36:39;;;;;;;11.30;1.40;;;;;;;16.30;71.51;100960.02;105791;1274;23989;-63
2022/07/09 05:39:08;;;;;;;6.90;1.10;;;;;;;16.38;71.29;100959.12;105751;1273;25340;-62
2022/07/09 05:41:37;;;;;;;9.20;1.40;;;;;;;16.45;71.35;100958.95;105789;1274;22578;-62
2022/07/09 05:44:06;;;;;;;12.40;1.50;;;;;;;16.50;71.20;100956.23;105643;1274;25269;-62
2022/07/09 05:46:35;;;;;;;6.50;1.00;;;;;;;16.53;71.05;100952.52;105952;1273;25326;-62
2022/07/09 05:49:04;;;;;;;6.90;1.00;;;;;;;16.57;70.95;100946.86;105694;1273;22573;-62
2022/07/09 05:51:32;;;;;;;7.80;2.00;;;;;;;16.63;71.07;100949.41;105838;1273;22563;-62
2022/07/09 05:54:01;;;;;;;9.20;1.70;;;;;;;16.66;70.77;100948.61;105791;1273;24248;-64
2022/07/09 05:56:30;;;;;;;8.00;1.10;;;;;;;16.68;70.88;100945.94;105819;1273;22544;-62
2022/07/09 05:58:59;;;;;;;4.00;1.10;;;;;;;16.70;70.80;100940.02;106056;1274;25066;-63
2022/07/09 06:01:28;;;;;;;5.90;1.10;;;;;;;16.73;70.94;100944.17;105778;1273;22572;-62
2022/07/09 06:03:57;;;;;;;9.60;1.50;;;;;;;16.77;70.77;100934.73;105848;1273;22565;-62
2022/07/09 06:06:26;;;;;;;5.50;1.20;;;;;;;16.80;70.79;100931.60;105921;1273;25284;-63
2022/07/09 06:08:55;;;;;;;4.90;1.00;;;;;;;16.82;70.50;100926.95;105735;1273;22592;-61
2022/07/09 06:11:26;;;;;;;4.80;1.10;;;;;;;16.86;70.69;100925.23;105805;1273;23101;-62
2022/07/09 06:13:55;;;;;;;5.90;1.40;;;;;;;16.92;70.75;100922.07;105710;1273;24933;-64
2022/07/09 06:16:24;;;;;;;6.80;1.50;;;;;;;17.00;70.73;100921.17;105653;1273;22577;-62
2022/07/09 06:18:53;;;;;;;7.30;1.20;;;;;;;17.07;70.44;100920.70;105816;1273;25271;-62
2022/07/09 06:21:23;;;;;;;6.10;1.10;;;;;;;17.11;70.32;100919.36;105792;1273;22538;-63
2022/07/09 06:23:52;;;;;;;10.60;1.50;;;;;;;17.14;70.09;100923.58;105744;1273;22620;-62
2022/07/09 06:26:24;;;;;;;9.40;1.50;;;;;;;17.15;70.05;100918.41;105726;1273;23073;-62
2022/07/09 06:28:53;;;;;;;4.40;1.10;;;;;;;17.16;70.06;100914.24;105811;1273;22591;-62
2022/07/09 06:31:22;;;;;;;9.90;1.50;;;;;;;17.22;70.34;100911.55;105753;1273;22665;-62
2022/07/09 06:33:52;;;;;;;7.70;1.00;;;;;;;17.29;70.01;100912.45;105564;1273;24438;-63
2022/07/09 06:36:20;;;;;;;3.90;1.10;;;;;;;17.37;70.22;100912.11;106833;1273;25409;-59
2022/07/09 06:41:38;;;;;;;3.90;1.10;;;;;;;17.51;69.24;100908.71;105644;1273;22715;-61
2022/07/09 06:44:07;;;;;;;7.50;1.20;;;;;;;17.54;69.35;100905.80;105718;1274;22576;-62
2022/07/09 06:46:36;;;;;;;5.50;0.90;;;;;;;17.61;69.15;100906.63;105823;1273;22554;-63
2022/07/09 06:49:06;;;;;;;4.20;0.90;;;;;;;17.69;68.61;100901.70;105860;1273;22661;-62
2022/07/09 06:51:36;;;;;;;6.30;0.80;;;;;;;17.75;67.92;100901.23;105991;1273;22634;-62
2022/07/09 06:54:05;;;;;;;5.20;0.90;;;;;;;17.81;67.84;100902.58;105848;1273;22538;-62
2022/07/09 06:56:35;;;;;;;4.80;0.70;;;;;;;17.88;67.16;100899.44;105799;1273;22574;-62
2022/07/09 06:59:05;;;;;;;5.40;0.90;;;;;;;17.95;66.94;100899.59;105705;1273;25872;-62
2022/07/09 07:01:33;;;;;;;8.60;0.80;;;;;;;18.04;66.79;100896.81;105501;1273;25040;-62
2022/07/09 07:04:02;;;;;;;4.50;0.80;;;;;;;18.16;66.87;100896.17;106727;1273;25450;-62
2022/07/09 07:06:31;;;;;;;5.50;0.70;;;;;;;18.28;66.28;100895.28;105614;1274;22562;-62
2022/07/09 07:09:02;;;;;;;7.60;0.70;;;;;;;18.37;65.36;100889.41;105982;1273;22700;-64
2022/07/09 07:11:31;;;;;;;4.30;0.70;;;;;;;18.41;64.74;100892.44;105758;1273;22708;-63
2022/07/09 07:14:00;;;;;;;3.20;0.60;;;;;;;18.37;64.54;100891.72;106020;1273;22700;-64
2022/07/09 07:16:29;;;;;;;3.30;0.70;;;;;;;18.37;64.23;100892.09;105653;1273;24349;-63
2022/07/09 07:18:58;;;;;;;5.00;0.60;;;;;;;18.42;63.76;100890.08;106005;1273;22703;-63
2022/07/09 07:21:27;;;;;;;3.70;0.60;;;;;;;18.48;62.59;100886.73;106249;1273;22557;-64
2022/07/09 07:23:56;;;;;;;4.30;0.80;;;;;;;18.49;62.51;100885.86;105578;1274;23199;-61
2022/07/09 07:26:24;;;;;;;6.80;0.70;;;;;;;18.53;62.91;100887.23;105553;1273;23474;-64
2022/07/09 07:28:54;;;;;;;4.20;0.70;;;;;;;18.58;62.85;100884.80;105598;1273;22577;-62
2022/07/09 07:31:24;;;;;;;6.90;0.70;;;;;;;18.60;62.49;100882.08;105687;1273;22601;-64
2022/07/09 07:33:53;;;;;;;8.80;0.80;;;;;;;18.64;62.19;100882.57;105778;1273;22548;-62
2022/07/09 07:36:22;;;;;;;4.50;0.60;;;;;;;18.75;61.66;100877.89;105645;1273;24242;-62
2022/07/09 07:38:51;;;;;;;4.90;0.90;;;;;;;18.88;61.13;100882.73;105699;1273;22708;-63
2022/07/09 07:41:21;;;;;;;3.90;0.70;;;;;;;18.99;59.76;100885.04;105716;1273;22690;-61
2022/07/09 07:43:50;;;;;;;3.50;0.50;;;;;;;18.99;59.19;100889.06;106184;1273;46959;-65
2022/07/09 07:46:19;;;;;;;8.00;0.50;;;;;;;19.03;58.31;100888.95;105766;1273;22512;-63
2022/07/09 07:48:49;;;;;;;7.60;0.50;;;;;;;19.09;58.05;100887.66;105592;1273;22704;-63
2022/07/09 07:51:18;;;;;;;5.90;0.50;;;;;;;19.16;58.10;100888.82;105750;1273;25271;-63
2022/07/09 07:53:47;;;;;;;4.50;0.50;;;;;;;19.23;57.11;100887.69;105598;1273;22522;-63
2022/07/09 07:56:17;;;;;;;6.80;0.70;;;;;;;19.28;55.84;100888.78;105712;1273;22544;-63
2022/07/09 07:58:46;;;;;;;6.40;0.90;;;;;;;19.29;56.01;100886.56;105537;1276;25382;-63
2022/07/09 08:01:16;;;;;;;2.50;0.50;;;;;;;19.24;56.52;100883.25;105912;1273;25317;-62
2022/07/09 08:03:46;;;;;;;8.10;0.90;;;;;;;19.29;57.39;100877.66;105858;1274;26643;-63
2022/07/09 08:06:15;;;;;;;;;;;;;;;19.36;57.29;100874.45;105751;1273;22527;-63
2022/07/09 08:08:44;;;;;;;3.70;0.70;;;;;;;19.36;56.16;100882.64;105361;1276;24499;-62
2022/07/09 08:11:14;;;;;;;2.90;0.40;;;;;;;19.31;55.96;100889.80;105601;1273;24282;-62
2022/07/09 08:13:43;;;;;;;5.10;0.60;;;;;;;19.30;55.53;100887.44;105807;1273;26588;-62
2022/07/09 08:16:13;;;;;;;6.80;0.70;;;;;;;19.35;55.37;100890.73;105818;1273;22540;-63
2022/07/09 08:18:41;;;;;;;;;;;;;;;19.37;54.60;100889.48;105869;1273;25644;-63
2022/07/09 08:21:10;;;;;;;4.10;0.60;;;;;;;19.39;54.49;100891.89;105821;1273;22560;-63
2022/07/09 08:23:51;;;;;;;2.40;0.50;;;;;;;19.44;54.17;100881.45;106141;1273;24315;-62
2022/07/09 08:26:21;;;;;;;2.20;0.40;;;;;;;19.48;52.87;100890.64;105681;1273;22638;-63
2022/07/09 08:28:50;;;;;;;5.20;0.50;;;;;;;19.49;53.26;100884.25;105700;1273;22536;-62
2022/07/09 08:31:20;;;;;;;3.70;0.40;;;;;;;19.52;52.87;100883.05;105745;1273;22553;-62
2022/07/09 08:33:50;;;;;;;3.90;0.50;;;;;;;19.56;51.55;100884.20;105739;1273;25567;-63
2022/07/09 08:36:19;;;;;;;5.80;0.50;;;;;;;19.51;51.55;100877.95;105691;1273;24360;-63
2022/07/09 08:38:49;;;;;;;1.60;0.40;;;;;;;19.47;50.93;100878.50;105678;1274;24401;-62
2022/07/09 08:41:19;;;;;;;3.10;0.40;;;;;;;19.43;52.40;100870.86;105579;1273;22495;-62
2022/07/09 08:43:52;;;;;;;8.50;0.70;;;;;;;19.53;52.63;100875.38;105678;1274;37417;-63
2022/07/09 08:46:22;;;;;;;4.10;0.70;;;;;;;19.62;51.85;100869.06;105836;1274;22573;-62
2022/07/09 08:48:53;;;;;;;2.90;0.40;;;;;;;19.67;52.23;100865.21;105609;1274;22564;-62
2022/07/09 08:51:22;;;;;;;4.70;0.60;;;;;;;19.72;52.26;100864.96;105611;1273;22891;-63
2022/07/09 08:53:53;;;;;;;4.50;0.60;;;;;;;19.79;51.25;100870.46;107759;1273;23470;-63
2022/07/09 08:56:22;;;;;;;4.30;0.60;;;;;;;19.80;50.96;100867.42;107025;1273;22544;-64
2022/07/09 08:58:51;;;;;;;4.30;0.50;;;;;;;19.82;51.40;100867.10;105743;1274;24711;-64
2022/07/09 09:01:20;;;;;;;6.30;0.60;;;;;;;19.89;51.35;100867.70;106836;1274;25355;-63
2022/07/09 09:03:49;;;;;;;3.20;0.50;;;;;;;19.94;50.70;100870.42;106854;1273;24236;-62
2022/07/09 09:06:23;;;;;;;5.40;0.60;;;;;;;19.95;50.05;100862.86;106752;1273;24964;-62
2022/07/09 09:08:56;;;;;;;3.80;0.60;;;;;;;19.94;50.05;100856.89;106261;1274;22802;-63
2022/07/09 09:11:26;;;;;;;4.30;0.50;;;;;;;19.91;50.88;100855.36;105630;1273;25389;-63
2022/07/09 09:13:55;;;;;;;4.60;0.70;;;;;;;19.99;51.20;100848.59;109578;1273;22433;-63
2022/07/09 09:16:23;;;;;;;1.60;0.30;;;;;;;20.10;51.12;100848.17;109588;1274;22475;-64
2022/07/09 09:18:53;;;;;;;2.30;0.40;;;;;;;20.23;48.76;100850.85;106558;1273;22606;-63
2022/07/09 09:21:24;;;;;;;2.40;0.50;;;;;;;20.31;48.14;100849.69;106574;1274;25308;-63
2022/07/09 09:23:55;;;;;;;5.50;0.50;;;;;;;20.31;47.80;100846.17;105987;1274;22649;-63
2022/07/09 09:26:23;;;;;;;;;;;;;;;20.32;48.30;100837.25;105770;1274;22528;-63
2022/07/09 09:28:53;;;;;;;1.90;0.40;;;;;;;20.37;48.14;100840.17;105959;1274;25577;-63
2022/07/09 09:31:27;;;;;;;2.90;0.50;;;;;;;20.46;47.66;100837.25;105719;1275;22560;-63
2022/07/09 09:33:57;;;;;;;2.80;0.60;;;;;;;20.47;47.71;100841.25;105793;1274;23951;-64
2022/07/09 09:36:33;;;;;;;5.70;0.60;;;;;;;20.47;47.37;100839.40;105688;1275;24235;-63
2022/07/09 09:39:13;;;;;;;2.60;0.60;;;;;;;20.41;48.09;100834.21;105740;1274;25387;-62
2022/07/09 09:41:43;;;;;;;4.10;0.60;;;;;;;20.43;47.79;100821.14;105742;1274;25287;-65
2022/07/09 09:44:14;;;;;;;4.10;0.60;;;;;;;20.46;46.79;100824.14;105734;1274;22748;-65
2022/07/09 09:46:45;;;;;;;2.10;0.50;;;;;;;20.45;46.16;100828.69;105677;1274;22775;-66
2022/07/09 09:49:15;;;;;;;1.40;0.30;;;;;;;20.38;46.64;100822.58;105936;1274;22561;-66
2022/07/09 09:51:50;;;;;;;4.20;0.50;;;;;;;20.41;46.75;100817.92;105951;1274;22703;-65
2022/07/09 09:54:20;;;;;;;2.70;0.60;;;;;;;20.42;44.97;100822.59;105909;1274;22541;-65
2022/07/09 09:56:50;;;;;;;3.80;0.50;;;;;;;20.35;44.92;100816.95;105862;1274;24450;-66
2022/07/09 09:59:19;;;;;;;2.20;0.40;;;;;;;20.35;45.50;100818.13;105749;1274;22697;-65
2022/07/09 10:01:48;;;;;;;3.40;0.60;;;;;;;20.41;45.60;100816.20;105687;1274;22771;-66
2022/07/09 10:04:18;;;;;;;4.10;0.60;;;;;;;20.50;46.05;100813.16;105810;1274;23257;-68
2022/07/09 10:06:47;;;;;;;1.60;0.40;;;;;;;20.62;45.81;100816.41;105790;1274;22554;-66
2022/07/09 10:09:19;;;;;;;5.60;0.70;;;;;;;20.67;45.50;100812.05;105644;1274;24234;-65
2022/07/09 10:11:49;;;;;;;4.70;0.70;;;;;;;20.69;45.64;100807.60;105565;1275;22622;-66
2022/07/09 10:14:30;;;;;;;6.10;0.70;;;;;;;20.80;45.15;100804.41;105710;1274;22571;-66
2022/07/09 10:17:11;;;;;;;3.30;0.50;;;;;;;20.83;44.33;100803.89;105601;1274;22543;-66
2022/07/09 10:19:51;;;;;;;9.80;0.80;;;;;;;20.81;43.84;100794.60;105617;1274;22554;-66
2022/07/09 10:22:20;;;;;;;3.40;0.50;;;;;;;20.80;43.88;100794.09;105683;1274;22537;-67
2022/07/09 10:24:53;;;;;;;4.80;0.50;;;;;;;20.76;44.25;100789.29;105599;1274;22710;-65
2022/07/09 10:27:22;;;;;;;6.30;0.60;;;;;;;20.73;44.18;100781.13;105993;1274;22682;-66
2022/07/09 10:29:56;;;;;;;5.00;0.50;;;;;;;20.75;43.34;100783.42;105510;1274;22539;-66
2022/07/09 10:32:28;;;;;;;3.70;0.60;;;;;;;20.76;43.53;100780.63;105516;1274;22547;-66
2022/07/09 10:35:01;;;;;;;8.90;0.70;;;;;;;20.81;44.42;100774.47;105698;1274;24333;-65
2022/07/09 10:37:35;;;;;;;4.40;0.60;;;;;;;20.90;44.33;100764.02;105873;1274;22755;-65
2022/07/09 10:40:11;;;;;;;4.50;0.40;;;;;;;20.96;44.06;100760.73;105751;1274;23074;-68
2022/07/09 10:42:41;;;;;;;4.40;0.60;;;;;;;21.06;42.97;100765.78;108474;1274;25386;-66
2022/07/09 10:45:24;;;;;;;1.90;0.50;;;;;;;21.09;42.65;100758.08;105462;1274;22595;-65
2022/07/09 10:47:55;;;;;;;3.20;0.50;;;;;;;21.15;42.64;100754.48;105637;1274;22556;-66
2022/07/09 10:50:26;;;;;;;7.00;0.70;;;;;;;21.20;43.43;100755.02;107137;1274;22541;-66
2022/07/09 10:52:55;;;;;;;3.80;0.70;;;;;;;21.26;43.61;100761.63;105682;1274;25665;-65
2022/07/09 10:55:26;;;;;;;3.30;0.60;;;;;;;21.28;43.81;100759.59;105768;1274;25508;-65
2022/07/09 10:57:56;;;;;;;5.90;0.60;;;;;;;21.32;44.22;100757.80;105956;1274;24240;-66
2022/07/09 11:00:26;;;;;;;2.00;0.50;;;;;;;21.45;44.55;100750.00;105978;1274;22564;-64
2022/07/09 11:02:57;;;;;;;4.10;0.80;;;;;;;21.52;44.08;100753.69;109567;1274;23249;-66
2022/07/09 11:05:27;;;;;;;4.90;0.60;;;;;;;21.62;44.19;100756.05;109051;1273;41287;-66
2022/07/09 11:08:01;;;;;;;3.10;0.30;;;;;;;21.73;42.39;100751.82;109475;1274;22459;-65
2022/07/09 11:10:31;;;;;;;5.80;0.70;;;;;;;21.80;42.04;100750.09;109459;1273;22477;-67
2022/07/09 11:13:01;;;;;;;6.00;0.70;;;;;;;21.90;42.63;100755.41;107501;1274;24312;-66
2022/07/09 11:15:33;;;;;;;6.00;0.90;;;;;;;21.93;43.66;100748.41;106814;1274;24316;-66
2022/07/09 11:18:04;;;;;;;6.10;1.00;;;;;;;21.97;43.61;100749.48;105667;1274;24309;-66
2022/07/09 11:20:38;;;;;;;4.40;0.60;;;;;;;21.93;43.51;100751.67;105747;1273;22857;-66
2022/07/09 11:23:08;;;;;;;6.20;0.80;;;;;;;21.91;42.99;100750.89;105998;1273;22563;-68
2022/07/09 11:25:36;;;;;;;;;;;;;;;21.91;42.73;100748.71;105821;1274;22549;-66
2022/07/09 11:28:05;;;;;;;2.50;0.60;;;;;;;21.94;42.74;100755.59;105456;1273;22609;-65
2022/07/09 11:30:36;;;;;;;4.90;0.50;;;;;;;21.96;42.26;100759.17;105642;1274;22595;-65
2022/07/09 11:33:06;;;;;;;3.10;0.60;;;;;;;21.98;42.10;100759.13;105692;1274;22608;-66